createdAt,value
2019-03-31T00:01:08.823Z,18.73
2019-03-31T00:01:55.980Z,18.73
2019-03-31T00:02:56.010Z,18.74
2019-03-31T00:03:56.003Z,18.73
2019-03-31T00:04:56.085Z,18.72
2019-03-31T00:05:56.137Z,18.72
2019-03-31T00:06:56.093Z,18.72
2019-03-31T00:07:55.952Z,18.72
2019-03-31T00:08:56.064Z,18.72
2019-03-31T00:09:56.146Z,18.72
2019-03-31T00:10:56.180Z,18.72
2019-03-31T00:11:55.969Z,18.7
2019-03-31T00:12:55.842Z,18.7
2019-03-31T00:13:55.901Z,18.7
2019-03-31T00:14:55.875Z,18.69
2019-03-31T00:15:55.858Z,18.69
2019-03-31T00:16:56.085Z,18.68
2019-03-31T00:17:56.051Z,18.68
2019-03-31T00:18:56.289Z,18.68
2019-03-31T00:19:56.061Z,18.67
2019-03-31T00:20:56.116Z,18.67
2019-03-31T00:21:55.976Z,18.67
2019-03-31T00:22:56.074Z,18.67
2019-03-31T00:23:56.139Z,18.67
2019-03-31T00:24:56.196Z,18.66
2019-03-31T00:25:56.035Z,18.66
2019-03-31T00:26:56.074Z,18.66
2019-03-31T00:27:55.836Z,18.65
2019-03-31T00:28:56.147Z,18.64
2019-03-31T00:29:56.090Z,18.63
2019-03-31T00:30:55.897Z,18.64
2019-03-31T00:31:55.898Z,18.63
2019-03-31T00:32:55.946Z,18.64
2019-03-31T00:33:55.990Z,18.63
2019-03-31T00:34:55.969Z,18.63
2019-03-31T00:35:55.946Z,18.63
2019-03-31T00:36:56.061Z,18.63
2019-03-31T00:37:56.004Z,18.61
2019-03-31T00:38:55.878Z,18.62
2019-03-31T00:39:56.285Z,18.62
2019-03-31T00:40:56.137Z,18.62
2019-03-31T00:41:56.154Z,18.61
2019-03-31T00:42:56.168Z,18.61
2019-03-31T00:43:56.080Z,18.6
2019-03-31T00:44:56.184Z,18.6
2019-03-31T00:45:56.172Z,18.6
2019-03-31T00:46:55.896Z,18.6
2019-03-31T00:47:55.996Z,18.6
2019-03-31T00:48:55.962Z,18.6
2019-03-31T00:49:55.936Z,18.59
2019-03-31T00:50:56.041Z,18.59
2019-03-31T00:51:55.899Z,18.58
2019-03-31T00:52:55.902Z,18.58
2019-03-31T00:53:55.997Z,18.58
2019-03-31T00:54:56.227Z,18.57
2019-03-31T00:55:56.032Z,18.58
2019-03-31T00:56:55.961Z,18.58
2019-03-31T00:57:55.956Z,18.57
2019-03-31T00:58:56.068Z,18.57
2019-03-31T00:59:56.052Z,18.58
2019-03-31T01:00:56.168Z,18.57
2019-03-31T01:01:56.215Z,18.56
2019-03-31T01:02:55.886Z,18.56
2019-03-31T01:03:56.055Z,18.56
2019-03-31T01:04:56.151Z,18.56
2019-03-31T01:05:56.140Z,18.56
2019-03-31T01:06:55.852Z,18.55
2019-03-31T01:07:56.019Z,18.54
2019-03-31T01:08:55.952Z,18.54
2019-03-31T01:09:55.998Z,18.54
2019-03-31T01:10:58.046Z,18.54
2019-03-31T01:11:56.039Z,18.54
2019-03-31T01:12:56.133Z,18.54
2019-03-31T01:13:55.978Z,18.53
2019-03-31T01:14:55.977Z,18.52
2019-03-31T01:15:56.007Z,18.52
2019-03-31T01:16:56.092Z,18.51
2019-03-31T01:17:56.049Z,18.52
2019-03-31T01:18:56.069Z,18.52
2019-03-31T01:19:56.064Z,18.52
2019-03-31T01:20:55.869Z,18.52
2019-03-31T01:21:56.059Z,18.51
2019-03-31T01:22:56.095Z,18.51
2019-03-31T01:23:56.422Z,18.51
2019-03-31T01:24:55.846Z,18.5
2019-03-31T01:25:55.990Z,18.5
2019-03-31T01:26:56.972Z,18.49
2019-03-31T01:27:55.939Z,18.48
2019-03-31T01:28:55.977Z,18.48
2019-03-31T01:29:56.006Z,18.48
2019-03-31T01:30:56.243Z,18.48
2019-03-31T01:31:55.969Z,18.48
2019-03-31T01:32:56.010Z,18.48
2019-03-31T01:33:55.960Z,18.48
2019-03-31T01:34:56.001Z,18.48
2019-03-31T01:35:56.176Z,18.48
2019-03-31T01:36:56.205Z,18.48
2019-03-31T01:37:56.118Z,18.48
2019-03-31T01:38:56.164Z,18.47
2019-03-31T01:39:56.169Z,18.48
2019-03-31T01:40:56.162Z,18.47
2019-03-31T01:41:56.209Z,18.46
2019-03-31T01:42:56.263Z,18.47
2019-03-31T01:43:55.844Z,18.46
2019-03-31T01:44:56.099Z,18.46
2019-03-31T01:45:55.900Z,18.45
2019-03-31T01:46:55.997Z,18.45
2019-03-31T01:47:56.015Z,18.46
2019-03-31T01:48:55.936Z,18.44
2019-03-31T01:49:55.803Z,18.45
2019-03-31T01:50:55.951Z,18.44
2019-03-31T01:51:56.050Z,18.43
2019-03-31T01:52:55.846Z,18.43
2019-03-31T01:53:55.959Z,18.43
2019-03-31T01:54:56.137Z,18.43
2019-03-31T01:55:56.006Z,18.42
2019-03-31T01:56:56.109Z,18.42
2019-03-31T01:57:56.112Z,18.41
2019-03-31T01:58:56.132Z,18.41
2019-03-31T01:59:56.301Z,18.41
2019-03-31T02:00:56.079Z,18.41
2019-03-31T02:02:05.031Z,18.41
2019-03-31T02:02:55.970Z,18.41
2019-03-31T02:03:55.817Z,18.41
2019-03-31T02:04:55.896Z,18.41
2019-03-31T02:05:55.829Z,18.41
2019-03-31T02:06:56.018Z,18.41
2019-03-31T02:07:56.022Z,18.41
2019-03-31T02:08:55.851Z,18.41
2019-03-31T02:09:55.938Z,18.4
2019-03-31T02:10:56.016Z,18.39
2019-03-31T02:11:55.923Z,18.39
2019-03-31T02:12:56.132Z,18.39
2019-03-31T02:13:56.110Z,18.39
2019-03-31T02:14:55.997Z,18.38
2019-03-31T02:15:56.136Z,18.39
2019-03-31T02:16:55.999Z,18.38
2019-03-31T02:17:56.143Z,18.39
2019-03-31T02:18:56.121Z,18.38
2019-03-31T02:19:56.098Z,18.37
2019-03-31T02:20:55.946Z,18.37
2019-03-31T02:21:56.005Z,18.37
2019-03-31T02:22:55.874Z,18.37
2019-03-31T02:23:56.200Z,18.36
2019-03-31T02:24:58.819Z,18.36
2019-03-31T02:25:55.905Z,18.35
2019-03-31T02:26:56.019Z,18.35
2019-03-31T02:27:55.912Z,18.35
2019-03-31T02:28:56.532Z,18.35
2019-03-31T02:29:55.974Z,18.35
2019-03-31T02:30:56.104Z,18.35
2019-03-31T02:31:55.948Z,18.35
2019-03-31T02:32:56.338Z,18.35
2019-03-31T02:33:56.156Z,18.35
2019-03-31T02:34:56.162Z,18.35
2019-03-31T02:35:56.129Z,18.34
2019-03-31T02:36:56.105Z,18.34
2019-03-31T02:37:56.214Z,18.33
2019-03-31T02:38:55.863Z,18.33
2019-03-31T02:39:56.022Z,18.32
2019-03-31T02:40:55.920Z,18.33
2019-03-31T02:41:56.033Z,18.32
2019-03-31T02:42:55.964Z,18.32
2019-03-31T02:43:55.844Z,18.33
2019-03-31T02:44:56.026Z,18.32
2019-03-31T02:45:55.955Z,18.32
2019-03-31T02:46:55.950Z,18.31
2019-03-31T02:47:55.909Z,18.32
2019-03-31T02:48:55.968Z,18.31
2019-03-31T02:49:56.106Z,18.31
2019-03-31T02:50:55.859Z,18.31
2019-03-31T02:51:56.021Z,18.31
2019-03-31T02:52:56.027Z,18.31
2019-03-31T02:53:56.123Z,18.3
2019-03-31T02:54:55.929Z,18.3
2019-03-31T02:55:56.230Z,18.29
2019-03-31T02:56:55.954Z,18.29
2019-03-31T02:57:55.897Z,18.29
2019-03-31T02:58:55.870Z,18.29
2019-03-31T02:59:55.865Z,18.29
2019-03-31T03:00:56.024Z,18.29
2019-03-31T03:01:55.979Z,18.29
2019-03-31T03:02:55.903Z,18.29
2019-03-31T03:03:56.023Z,18.29
2019-03-31T03:04:56.259Z,18.29
2019-03-31T03:05:56.112Z,18.29
2019-03-31T03:06:55.866Z,18.29
2019-03-31T03:07:56.007Z,18.28
2019-03-31T03:08:56.045Z,18.27
2019-03-31T03:09:56.033Z,18.28
2019-03-31T03:10:56.115Z,18.27
2019-03-31T03:11:56.044Z,18.27
2019-03-31T03:12:56.049Z,18.27
2019-03-31T03:13:56.109Z,18.26
2019-03-31T03:14:55.911Z,18.26
2019-03-31T03:15:55.844Z,18.25
2019-03-31T03:16:55.831Z,18.26
2019-03-31T03:17:55.929Z,18.25
2019-03-31T03:18:56.020Z,18.25
2019-03-31T03:19:55.958Z,18.26
2019-03-31T03:20:56.008Z,18.25
2019-03-31T03:21:55.896Z,18.25
2019-03-31T03:22:55.951Z,18.25
2019-03-31T03:23:56.044Z,18.25
2019-03-31T03:24:56.133Z,18.25
2019-03-31T03:25:57.338Z,18.24
2019-03-31T03:26:56.330Z,18.24
2019-03-31T03:27:56.074Z,18.24
2019-03-31T03:28:55.969Z,18.23
2019-03-31T03:29:56.013Z,18.23
2019-03-31T03:30:58.530Z,18.23
2019-03-31T03:31:56.387Z,18.23
2019-03-31T03:33:19.737Z,18.23
2019-03-31T03:33:56.079Z,18.23
2019-03-31T03:34:56.293Z,18.23
2019-03-31T03:35:55.969Z,18.23
2019-03-31T03:36:56.019Z,18.23
2019-03-31T03:37:55.864Z,18.24
2019-03-31T03:38:55.907Z,18.23
2019-03-31T03:39:56.072Z,18.23
2019-03-31T03:40:55.966Z,18.24
2019-03-31T03:41:56.164Z,18.24
2019-03-31T03:42:55.929Z,18.25
2019-03-31T03:44:03.137Z,18.26
2019-03-31T03:44:55.990Z,18.25
2019-03-31T03:45:56.053Z,18.27
2019-03-31T03:46:56.036Z,18.27
2019-03-31T03:47:56.067Z,18.28
2019-03-31T03:48:56.832Z,18.29
2019-03-31T03:49:56.050Z,18.29
2019-03-31T03:50:56.426Z,18.29
2019-03-31T03:51:55.878Z,18.31
2019-03-31T03:52:55.913Z,18.32
2019-03-31T03:53:55.996Z,18.33
2019-03-31T03:54:55.876Z,18.35
2019-03-31T03:55:55.885Z,18.36
2019-03-31T03:56:55.920Z,18.37
2019-03-31T03:57:55.873Z,18.39
2019-03-31T03:58:55.972Z,18.41
2019-03-31T03:59:55.879Z,18.43
2019-03-31T04:00:56.003Z,18.45
2019-03-31T04:01:55.957Z,18.46
2019-03-31T04:02:56.055Z,18.49
2019-03-31T04:03:56.015Z,18.51
2019-03-31T04:04:56.102Z,18.52
2019-03-31T04:05:55.982Z,18.54
2019-03-31T04:06:57.229Z,18.56
2019-03-31T04:07:56.001Z,18.58
2019-03-31T04:08:56.049Z,18.6
2019-03-31T04:09:56.133Z,18.61
2019-03-31T04:10:55.807Z,18.63
2019-03-31T04:11:56.042Z,18.64
2019-03-31T04:12:55.947Z,18.65
2019-03-31T04:13:55.873Z,18.67
2019-03-31T04:14:55.911Z,18.69
2019-03-31T04:15:56.015Z,18.71
2019-03-31T04:16:55.835Z,18.72
2019-03-31T04:17:55.929Z,18.73
2019-03-31T04:18:55.937Z,18.75
2019-03-31T04:19:56.011Z,18.76
2019-03-31T04:20:56.031Z,18.77
2019-03-31T04:21:55.991Z,18.79
2019-03-31T04:22:56.170Z,18.8
2019-03-31T04:23:56.100Z,18.81
2019-03-31T04:24:56.019Z,18.82
2019-03-31T04:25:56.123Z,18.83
2019-03-31T04:26:56.083Z,18.86
2019-03-31T04:27:56.046Z,18.86
2019-03-31T04:28:56.167Z,18.86
2019-03-31T04:29:55.936Z,18.88
2019-03-31T04:30:55.793Z,18.89
2019-03-31T04:31:55.960Z,18.9
2019-03-31T04:32:55.836Z,18.9
2019-03-31T04:33:55.856Z,18.9
2019-03-31T04:34:55.866Z,18.92
2019-03-31T04:35:55.861Z,18.93
2019-03-31T04:36:55.851Z,18.94
2019-03-31T04:37:56.050Z,18.94
2019-03-31T04:39:01.207Z,18.94
2019-03-31T04:39:56.027Z,18.95
2019-03-31T04:40:55.939Z,18.95
2019-03-31T04:41:55.955Z,18.96
2019-03-31T04:42:56.066Z,18.97
2019-03-31T04:43:56.030Z,18.97
2019-03-31T04:44:56.003Z,18.97
2019-03-31T04:45:56.016Z,18.98
2019-03-31T04:46:56.107Z,18.97
2019-03-31T04:47:56.183Z,18.98
2019-03-31T04:48:55.859Z,18.97
2019-03-31T04:49:55.883Z,18.98
2019-03-31T04:50:55.808Z,18.98
2019-03-31T04:51:55.916Z,18.99
2019-03-31T04:52:56.028Z,19
2019-03-31T04:53:55.841Z,18.99
2019-03-31T04:54:55.985Z,19
2019-03-31T04:55:55.902Z,19
2019-03-31T04:56:55.931Z,19.01
2019-03-31T04:57:56.012Z,19
2019-03-31T04:58:56.517Z,19.01
2019-03-31T04:59:56.014Z,19
2019-03-31T05:00:56.137Z,19
2019-03-31T05:01:56.066Z,19
2019-03-31T05:02:56.032Z,19
2019-03-31T05:04:05.723Z,19
2019-03-31T05:04:55.998Z,19
2019-03-31T05:05:56.099Z,19
2019-03-31T05:06:55.907Z,19
2019-03-31T05:07:55.755Z,18.99
2019-03-31T05:08:56.073Z,18.99
2019-03-31T05:09:55.883Z,18.99
2019-03-31T05:10:55.785Z,18.99
2019-03-31T05:11:55.935Z,18.99
2019-03-31T05:12:55.826Z,18.99
2019-03-31T05:13:55.881Z,18.99
2019-03-31T05:14:55.940Z,19
2019-03-31T05:15:55.860Z,18.98
2019-03-31T05:16:55.931Z,18.98
2019-03-31T05:17:55.925Z,18.97
2019-03-31T05:18:56.101Z,18.97
2019-03-31T05:19:56.462Z,18.97
2019-03-31T05:20:56.463Z,18.97
2019-03-31T05:21:55.954Z,18.97
2019-03-31T05:22:55.986Z,18.98
2019-03-31T05:23:56.005Z,18.97
2019-03-31T05:24:55.878Z,18.97
2019-03-31T05:25:55.793Z,18.97
2019-03-31T05:26:55.945Z,18.96
2019-03-31T05:27:55.859Z,18.97
2019-03-31T05:28:55.847Z,18.96
2019-03-31T05:29:55.843Z,18.96
2019-03-31T05:30:55.824Z,18.96
2019-03-31T05:31:55.908Z,18.95
2019-03-31T05:32:55.900Z,18.95
2019-03-31T05:33:55.901Z,18.95
2019-03-31T05:34:55.954Z,18.95
2019-03-31T05:35:55.948Z,18.95
2019-03-31T05:36:56.053Z,18.95
2019-03-31T05:37:55.966Z,18.95
2019-03-31T05:38:56.082Z,18.94
2019-03-31T05:39:56.028Z,18.94
2019-03-31T05:40:56.068Z,18.94
2019-03-31T05:41:56.078Z,18.93
2019-03-31T05:42:56.130Z,18.92
2019-03-31T05:44:06.352Z,18.93
2019-03-31T05:44:55.798Z,18.93
2019-03-31T05:45:55.754Z,18.92
2019-03-31T05:46:55.886Z,18.92
2019-03-31T05:47:55.799Z,18.92
2019-03-31T05:48:55.886Z,18.92
2019-03-31T05:49:55.838Z,18.91
2019-03-31T05:50:55.889Z,18.9
2019-03-31T05:51:55.879Z,18.91
2019-03-31T05:52:56.013Z,18.9
2019-03-31T05:53:55.904Z,18.9
2019-03-31T05:54:55.878Z,18.9
2019-03-31T05:55:56.042Z,18.9
2019-03-31T05:56:55.923Z,18.9
2019-03-31T05:57:55.953Z,18.9
2019-03-31T05:58:56.119Z,18.9
2019-03-31T05:59:55.968Z,18.9
2019-03-31T06:00:55.906Z,18.89
2019-03-31T06:01:55.858Z,18.89
2019-03-31T06:02:55.871Z,18.89
2019-03-31T06:03:55.895Z,18.89
2019-03-31T06:04:55.834Z,18.87
2019-03-31T06:05:55.998Z,18.88
2019-03-31T06:06:56.020Z,18.88
2019-03-31T06:07:55.864Z,18.87
2019-03-31T06:08:55.864Z,18.86
2019-03-31T06:09:55.978Z,18.86
2019-03-31T06:10:55.887Z,18.87
2019-03-31T06:11:55.939Z,18.87
2019-03-31T06:12:55.997Z,18.86
2019-03-31T06:13:56.032Z,18.87
2019-03-31T06:14:55.950Z,18.86
2019-03-31T06:15:55.950Z,18.88
2019-03-31T06:16:56.101Z,18.86
2019-03-31T06:17:55.986Z,18.87
2019-03-31T06:18:55.990Z,18.87
2019-03-31T06:19:55.978Z,18.87
2019-03-31T06:20:55.798Z,18.87
2019-03-31T06:21:55.771Z,18.88
2019-03-31T06:22:55.934Z,18.87
2019-03-31T06:23:55.776Z,18.87
2019-03-31T06:24:55.957Z,18.87
2019-03-31T06:25:55.913Z,18.87
2019-03-31T06:26:55.797Z,18.87
2019-03-31T06:27:55.830Z,18.87
2019-03-31T06:28:55.913Z,18.87
2019-03-31T06:29:55.892Z,18.88
2019-03-31T06:30:55.868Z,18.87
2019-03-31T06:31:55.862Z,18.87
2019-03-31T06:32:55.915Z,18.87
2019-03-31T06:33:55.901Z,18.88
2019-03-31T06:34:55.978Z,18.88
2019-03-31T06:35:56.042Z,18.89
2019-03-31T06:36:55.960Z,18.88
2019-03-31T06:37:55.797Z,18.89
2019-03-31T06:38:55.787Z,18.89
2019-03-31T06:39:55.792Z,18.89
2019-03-31T06:40:55.872Z,18.89
2019-03-31T06:41:55.839Z,18.9
2019-03-31T06:42:55.795Z,18.9
2019-03-31T06:43:55.802Z,18.9
2019-03-31T06:44:55.863Z,18.9
2019-03-31T06:45:56.096Z,18.9
2019-03-31T06:46:55.962Z,18.9
2019-03-31T06:47:55.881Z,18.9
2019-03-31T06:48:56.063Z,18.9
2019-03-31T06:49:56.036Z,18.9
2019-03-31T06:50:55.927Z,18.91
2019-03-31T06:51:55.929Z,18.91
2019-03-31T06:52:55.969Z,18.91
2019-03-31T06:53:56.028Z,18.91
2019-03-31T06:54:56.087Z,18.91
2019-03-31T06:55:55.718Z,18.91
2019-03-31T06:56:55.751Z,18.91
2019-03-31T06:57:55.721Z,18.91
2019-03-31T06:58:55.746Z,18.92
2019-03-31T06:59:55.855Z,18.91
2019-03-31T07:00:55.759Z,18.92
2019-03-31T07:01:55.898Z,18.91
2019-03-31T07:02:55.911Z,18.92
2019-03-31T07:03:55.805Z,18.91
2019-03-31T07:05:02.331Z,18.92
2019-03-31T07:05:55.852Z,18.92
2019-03-31T07:06:55.855Z,18.92
2019-03-31T07:07:55.898Z,18.93
2019-03-31T07:08:55.897Z,18.93
2019-03-31T07:09:55.987Z,18.93
2019-03-31T07:10:55.892Z,18.93
2019-03-31T07:11:55.972Z,18.94
2019-03-31T07:13:00.004Z,18.94
2019-03-31T07:13:55.950Z,18.93
2019-03-31T07:14:55.879Z,18.93
2019-03-31T07:15:55.773Z,18.93
2019-03-31T07:16:55.789Z,18.94
2019-03-31T07:17:55.756Z,18.94
2019-03-31T07:18:55.923Z,18.94
2019-03-31T07:19:55.845Z,18.94
2019-03-31T07:20:55.827Z,18.94
2019-03-31T07:21:55.906Z,18.94
2019-03-31T07:22:55.856Z,18.93
2019-03-31T07:23:55.863Z,18.94
2019-03-31T07:24:55.931Z,18.93
2019-03-31T07:25:55.890Z,18.94
2019-03-31T07:26:55.888Z,18.95
2019-03-31T07:27:55.912Z,18.94
2019-03-31T07:28:56.170Z,18.94
2019-03-31T07:29:56.276Z,18.94
2019-03-31T07:30:59.785Z,18.94
2019-03-31T07:31:55.958Z,18.93
2019-03-31T07:32:56.093Z,18.93
2019-03-31T07:33:55.659Z,18.94
2019-03-31T07:34:55.712Z,18.94
2019-03-31T07:35:55.891Z,18.94
2019-03-31T07:36:55.710Z,18.94
2019-03-31T07:37:55.901Z,18.94
2019-03-31T07:38:56.164Z,18.93
2019-03-31T07:39:56.095Z,18.94
2019-03-31T07:41:13.273Z,18.94
2019-03-31T07:41:56.899Z,18.94
2019-03-31T07:42:56.510Z,18.94
2019-03-31T07:43:55.855Z,18.93
2019-03-31T07:44:55.947Z,18.94
2019-03-31T07:45:56.356Z,18.94
2019-03-31T07:46:55.883Z,18.95
2019-03-31T07:47:55.921Z,18.94
2019-03-31T07:48:55.972Z,18.94
2019-03-31T07:49:56.097Z,18.94
2019-03-31T07:50:56.261Z,18.94
2019-03-31T07:51:55.704Z,18.93
2019-03-31T07:52:55.785Z,18.95
2019-03-31T07:53:57.876Z,18.93
2019-03-31T07:54:55.757Z,18.93
2019-03-31T07:55:55.801Z,18.94
2019-03-31T07:56:55.779Z,18.94
2019-03-31T07:57:55.861Z,18.93
2019-03-31T07:58:56.394Z,18.95
2019-03-31T07:59:57.248Z,18.94
2019-03-31T08:00:55.932Z,18.95
2019-03-31T08:01:55.899Z,18.95
2019-03-31T08:02:55.898Z,18.94
2019-03-31T08:03:55.888Z,18.93
2019-03-31T08:04:55.879Z,18.93
2019-03-31T08:05:56.026Z,18.94
2019-03-31T08:06:55.973Z,18.94
2019-03-31T08:07:55.939Z,18.93
2019-03-31T08:08:55.925Z,18.93
2019-03-31T08:09:56.048Z,18.95
2019-03-31T08:10:55.760Z,18.93
2019-03-31T08:11:55.989Z,18.94
2019-03-31T08:12:55.894Z,18.94
2019-03-31T08:13:55.781Z,18.93
2019-03-31T08:14:55.890Z,18.93
2019-03-31T08:15:55.754Z,18.92
2019-03-31T08:16:55.758Z,18.92
2019-03-31T08:17:55.884Z,18.94
2019-03-31T08:18:55.802Z,18.93
2019-03-31T08:19:55.899Z,18.93
2019-03-31T08:20:55.855Z,18.93
2019-03-31T08:21:55.870Z,18.93
2019-03-31T08:22:57.461Z,18.93
2019-03-31T08:23:55.863Z,18.93
2019-03-31T08:24:55.973Z,18.93
2019-03-31T08:25:55.899Z,18.94
2019-03-31T08:26:55.932Z,18.94
2019-03-31T08:27:55.704Z,18.93
2019-03-31T08:28:58.874Z,18.94
2019-03-31T08:30:01.627Z,18.93
2019-03-31T08:30:55.739Z,18.93
2019-03-31T08:31:55.784Z,18.95
2019-03-31T08:32:55.825Z,18.94
2019-03-31T08:33:55.780Z,18.94
2019-03-31T08:34:55.780Z,18.93
2019-03-31T08:35:55.829Z,18.92
2019-03-31T08:36:55.935Z,18.93
2019-03-31T08:37:55.894Z,18.93
2019-03-31T08:38:55.859Z,18.93
2019-03-31T08:39:55.885Z,18.93
2019-03-31T08:40:55.976Z,18.93
2019-03-31T08:41:55.973Z,18.93
2019-03-31T08:42:56.117Z,18.93
2019-03-31T08:43:56.059Z,18.92
2019-03-31T08:44:55.942Z,18.92
2019-03-31T08:45:55.929Z,18.92
2019-03-31T08:46:55.720Z,18.93
2019-03-31T08:47:55.822Z,18.92
2019-03-31T08:48:55.876Z,18.92
2019-03-31T08:49:55.869Z,18.91
2019-03-31T08:50:55.742Z,18.92
2019-03-31T08:51:55.718Z,18.93
2019-03-31T08:52:55.884Z,18.92
2019-03-31T08:53:55.788Z,18.92
2019-03-31T08:54:56.045Z,18.91
2019-03-31T08:55:56.902Z,18.92
2019-03-31T08:56:55.797Z,18.91
2019-03-31T08:57:55.882Z,18.92
2019-03-31T08:58:56.088Z,18.92
2019-03-31T08:59:55.883Z,18.92
2019-03-31T09:00:55.828Z,18.91
2019-03-31T09:01:55.843Z,18.9
2019-03-31T09:02:56.050Z,18.9
2019-03-31T09:03:55.961Z,18.91
2019-03-31T09:04:55.915Z,18.9
2019-03-31T09:06:02.892Z,18.9
2019-03-31T09:06:55.776Z,18.9
2019-03-31T09:07:55.723Z,18.9
2019-03-31T09:08:55.842Z,18.9
2019-03-31T09:09:55.734Z,18.9
2019-03-31T09:10:55.859Z,18.9
2019-03-31T09:11:55.910Z,18.9
2019-03-31T09:12:55.783Z,18.89
2019-03-31T09:13:56.025Z,18.89
2019-03-31T09:14:55.823Z,18.9
2019-03-31T09:15:55.903Z,18.91
2019-03-31T09:16:55.800Z,18.94
2019-03-31T09:17:55.847Z,18.94
2019-03-31T09:18:55.971Z,18.94
2019-03-31T09:19:55.873Z,18.95
2019-03-31T09:20:55.864Z,18.96
2019-03-31T09:21:56.602Z,18.97
2019-03-31T09:22:55.898Z,18.97
2019-03-31T09:23:56.002Z,18.97
2019-03-31T09:24:56.035Z,18.98
2019-03-31T09:25:55.663Z,18.99
2019-03-31T09:26:55.714Z,19
2019-03-31T09:27:55.808Z,19.01
2019-03-31T09:28:55.681Z,19.01
2019-03-31T09:29:55.867Z,19.02
2019-03-31T09:30:55.728Z,19.03
2019-03-31T09:31:55.791Z,19.03
2019-03-31T09:32:55.753Z,19.03
2019-03-31T09:33:55.780Z,19.03
2019-03-31T09:34:55.950Z,19.02
2019-03-31T09:35:55.808Z,19.02
2019-03-31T09:36:55.838Z,19.02
2019-03-31T09:37:55.975Z,19.01
2019-03-31T09:38:56.188Z,19.01
2019-03-31T09:39:55.840Z,19.02
2019-03-31T09:40:55.852Z,19.02
2019-03-31T09:41:56.040Z,19.01
2019-03-31T09:42:55.884Z,19.01
2019-03-31T09:43:55.763Z,19
2019-03-31T09:44:55.789Z,19
2019-03-31T09:45:55.755Z,19.01
2019-03-31T09:46:55.720Z,19.02
2019-03-31T09:47:55.976Z,19.03
2019-03-31T09:48:57.758Z,19.03
2019-03-31T09:49:55.780Z,19.03
2019-03-31T09:50:56.928Z,19.05
2019-03-31T09:51:55.810Z,19.06
2019-03-31T09:52:55.915Z,19.07
2019-03-31T09:53:55.825Z,19.08
2019-03-31T09:54:55.822Z,19.09
2019-03-31T09:55:55.968Z,19.09
2019-03-31T09:56:55.931Z,19.09
2019-03-31T09:57:55.952Z,19.1
2019-03-31T09:58:55.891Z,19.11
2019-03-31T09:59:56.268Z,19.13
2019-03-31T10:00:55.909Z,19.14
2019-03-31T10:01:55.907Z,19.15
2019-03-31T10:02:55.829Z,19.17
2019-03-31T10:03:55.752Z,19.19
2019-03-31T10:04:55.734Z,19.19
2019-03-31T10:06:11.491Z,19.21
2019-03-31T10:06:55.848Z,19.22
2019-03-31T10:07:55.843Z,19.23
2019-03-31T10:08:55.710Z,19.24
2019-03-31T10:09:55.764Z,19.24
2019-03-31T10:10:55.843Z,19.26
2019-03-31T10:11:55.924Z,19.27
2019-03-31T10:12:55.769Z,19.27
2019-03-31T10:13:55.786Z,19.27
2019-03-31T10:14:55.962Z,19.28
2019-03-31T10:15:55.891Z,19.28
2019-03-31T10:16:55.985Z,19.31
2019-03-31T10:17:55.939Z,19.31
2019-03-31T10:18:55.915Z,19.32
2019-03-31T10:19:55.889Z,19.33
2019-03-31T10:20:55.892Z,19.33
2019-03-31T10:21:55.986Z,19.33
2019-03-31T10:22:55.778Z,19.34
2019-03-31T10:23:55.819Z,19.35
2019-03-31T10:24:55.723Z,19.35
2019-03-31T10:25:55.813Z,19.37
2019-03-31T10:26:55.901Z,19.39
2019-03-31T10:27:55.772Z,19.4
2019-03-31T10:28:55.845Z,19.43
2019-03-31T10:29:56.671Z,19.45
2019-03-31T10:30:55.908Z,19.45
2019-03-31T10:31:55.905Z,19.45
2019-03-31T10:32:55.962Z,19.45
2019-03-31T10:33:55.940Z,19.46
2019-03-31T10:34:55.856Z,19.46
2019-03-31T10:35:55.881Z,19.47
2019-03-31T10:36:55.961Z,19.48
2019-03-31T10:37:55.977Z,19.49
2019-03-31T10:38:55.898Z,19.48
2019-03-31T10:39:55.930Z,19.5
2019-03-31T10:40:55.622Z,19.51
2019-03-31T10:41:55.810Z,19.52
2019-03-31T10:42:55.928Z,19.52
2019-03-31T10:43:57.638Z,19.52
2019-03-31T10:44:55.812Z,19.54
2019-03-31T10:45:55.712Z,19.55
2019-03-31T10:46:58.844Z,19.57
2019-03-31T10:47:55.759Z,19.57
2019-03-31T10:48:55.933Z,19.57
2019-03-31T10:49:55.767Z,19.59
2019-03-31T10:50:55.751Z,19.6
2019-03-31T10:51:55.916Z,19.62
2019-03-31T10:52:55.814Z,19.62
2019-03-31T10:53:55.830Z,19.62
2019-03-31T10:54:55.801Z,19.6
2019-03-31T10:55:55.806Z,19.6
2019-03-31T10:56:56.118Z,19.62
2019-03-31T10:57:56.093Z,19.61
2019-03-31T10:58:55.657Z,19.61
2019-03-31T10:59:55.682Z,19.62
2019-03-31T11:00:55.807Z,19.62
2019-03-31T11:01:55.775Z,19.61
2019-03-31T11:02:55.695Z,19.62
2019-03-31T11:03:55.785Z,19.62
2019-03-31T11:04:55.831Z,19.62
2019-03-31T11:05:55.845Z,19.62
2019-03-31T11:07:04.099Z,19.63
2019-03-31T11:07:55.776Z,19.63
2019-03-31T11:08:55.850Z,19.63
2019-03-31T11:09:55.867Z,19.63
2019-03-31T11:10:55.777Z,19.63
2019-03-31T11:11:55.826Z,19.63
2019-03-31T11:12:55.939Z,19.63
2019-03-31T11:13:55.862Z,19.64
2019-03-31T11:14:55.860Z,19.64
2019-03-31T11:15:57.933Z,19.64
2019-03-31T11:16:55.861Z,19.64
2019-03-31T11:17:55.906Z,19.65
2019-03-31T11:18:55.616Z,19.66
2019-03-31T11:19:55.672Z,19.65
2019-03-31T11:20:55.774Z,19.66
2019-03-31T11:21:55.679Z,19.66
2019-03-31T11:22:55.819Z,19.67
2019-03-31T11:23:55.688Z,19.67
2019-03-31T11:24:55.814Z,19.66
2019-03-31T11:25:55.871Z,19.67
2019-03-31T11:26:56.016Z,19.67
2019-03-31T11:27:56.106Z,19.68
2019-03-31T11:28:55.833Z,19.68
2019-03-31T11:29:55.784Z,19.69
2019-03-31T11:30:56.192Z,19.69
2019-03-31T11:31:55.911Z,19.69
2019-03-31T11:32:55.980Z,19.69
2019-03-31T11:33:55.879Z,19.69
2019-03-31T11:34:55.896Z,19.69
2019-03-31T11:35:55.762Z,19.7
2019-03-31T11:36:55.778Z,19.69
2019-03-31T11:37:55.761Z,19.68
2019-03-31T11:38:55.776Z,19.67
2019-03-31T11:39:55.664Z,19.66
2019-03-31T11:40:55.699Z,19.66
2019-03-31T11:41:55.722Z,19.65
2019-03-31T11:42:55.714Z,19.65
2019-03-31T11:43:55.881Z,19.65
2019-03-31T11:44:55.760Z,19.63
2019-03-31T11:45:55.693Z,19.63
2019-03-31T11:46:55.785Z,19.63
2019-03-31T11:47:55.874Z,19.63
2019-03-31T11:48:56.194Z,19.62
2019-03-31T11:49:55.825Z,19.61
2019-03-31T11:50:55.839Z,19.63
2019-03-31T11:51:55.846Z,19.63
2019-03-31T11:52:55.853Z,19.63
2019-03-31T11:53:55.928Z,19.63
2019-03-31T11:54:55.744Z,19.63
2019-03-31T11:55:55.634Z,19.63
2019-03-31T11:56:55.748Z,19.63
2019-03-31T11:57:55.667Z,19.63
2019-03-31T11:58:55.684Z,19.64
2019-03-31T11:59:56.088Z,19.64
2019-03-31T12:00:55.720Z,19.64
2019-03-31T12:01:55.810Z,19.63
2019-03-31T12:02:55.735Z,19.63
2019-03-31T12:03:55.722Z,19.63
2019-03-31T12:04:56.013Z,19.63
2019-03-31T12:05:55.887Z,19.64
2019-03-31T12:06:55.757Z,19.64
2019-03-31T12:07:55.836Z,19.65
2019-03-31T12:08:55.801Z,19.64
2019-03-31T12:09:55.787Z,19.64
2019-03-31T12:10:56.211Z,19.65
2019-03-31T12:11:56.062Z,19.67
2019-03-31T12:12:55.745Z,19.65
2019-03-31T12:13:55.720Z,19.65
2019-03-31T12:15:01.726Z,19.63
2019-03-31T12:15:55.698Z,19.63
2019-03-31T12:16:55.749Z,19.63
2019-03-31T12:17:55.747Z,19.62
2019-03-31T12:18:55.741Z,19.62
2019-03-31T12:19:55.756Z,19.61
2019-03-31T12:20:55.853Z,19.61
2019-03-31T12:21:55.810Z,19.61
2019-03-31T12:22:55.840Z,19.6
2019-03-31T12:23:55.810Z,19.6
2019-03-31T12:24:55.816Z,19.6
2019-03-31T12:25:55.953Z,19.59
2019-03-31T12:26:55.844Z,19.58
2019-03-31T12:27:56.082Z,19.58
2019-03-31T12:28:55.932Z,19.58
2019-03-31T12:29:55.690Z,19.57
2019-03-31T12:30:55.593Z,19.57
2019-03-31T12:31:55.618Z,19.57
2019-03-31T12:32:56.253Z,19.56
2019-03-31T12:33:55.637Z,19.56
2019-03-31T12:34:55.869Z,19.56
2019-03-31T12:35:55.846Z,19.55
2019-03-31T12:36:55.702Z,19.55
2019-03-31T12:37:55.850Z,19.55
2019-03-31T12:38:55.724Z,19.54
2019-03-31T12:39:55.791Z,19.54
2019-03-31T12:40:55.754Z,19.53
2019-03-31T12:41:55.774Z,19.53
2019-03-31T12:42:55.878Z,19.52
2019-03-31T12:43:55.842Z,19.52
2019-03-31T12:44:55.809Z,19.51
2019-03-31T12:45:55.873Z,19.51
2019-03-31T12:46:56.855Z,19.51
2019-03-31T12:47:55.645Z,19.51
2019-03-31T12:48:55.718Z,19.51
2019-03-31T12:49:55.745Z,19.51
2019-03-31T12:50:55.803Z,19.5
2019-03-31T12:51:55.742Z,19.51
2019-03-31T12:52:55.686Z,19.51
2019-03-31T12:53:55.888Z,19.49
2019-03-31T12:54:56.295Z,19.5
2019-03-31T12:56:00.997Z,19.49
2019-03-31T12:56:55.775Z,19.49